EGPB

Sumburgh Airport

Lerwick, United Kingdom
METAR EGPB 181620Z 25020KT 8000 -DZ SCT005 BKN009 08/08 Q1018
Observed Flight Rules
Dec-18 @ 16:20 UTC (26 minutes ago) Instrument Flight Rules
Wind Visibility Clouds Conditions
250° at 20 knots 7,998 meters
  • Scattered at 500' AGL
  • Broken at 900' AGL
  • Light Drizzle
Temperatures Readings
Current 8°C / 46°F
Dewpoint 8°C / 46°F
Humidity 100%
Altimeter 30.06" Hg
Pressure 1018 hPa
Elevation 5
METAR EGPB 181620Z 25020KT 8000 -DZ SCT005 BKN009 08/08 Q1018
Observed Flight Rules
Dec-18 @ 16:20 UTC
(26 minutes ago)
IFR
Wind Visibility
250° at 20 knots 7,998 meters
Clouds
  • Scattered at 500' AGL
  • Broken at 900' AGL
Conditions
  • Light Drizzle
Temperature Dewpoint
8°C / 46°F 8°C / 46°F
Humidity Altimeter Pressure
100% 30.06" Hg 1018 hPa